URKA Airport Information

Runway Information
Runway 04 Length 8202 ft width 138 ft
Elevation 137 ft Threshold ft Heading 42
Runway 22 Length 8202 ft Width 138 ft
Elevation 174 ft Threshold ft Heading 222
Airport Frequencies
Type APP Name ANAPA APP Frequency 118.7 MHZ
Type TWR Name ANAPA KRUG Frequency 119.8 MHZ
Airport Navaids
Type NDB Name Anapa Frequency 443 KHZ
Type NDB Name Anapa Frequency 443 KHZ
Airport Weather Information & NOTAM
ADDS - METARS form results

(2050 UTC 14 August 2022)
Data provider http://aviationweather.gov/metar/data/
 
METAR text: URKA 142030Z 15001MPS CAVOK 22/22 Q1004 R22/010070 TEMPO 1000 BR RMK QFE748/0998
Conditions at: URKA (ANAPA/VITIAZEVO , RU) observed 2030 UTC 14 August 2022
Temperature: 22.0°C (72°F)
Dewpoint: 22.0°C (72°F) [RH = 100%]
Pressure (altimeter): 29.65 inches Hg (1004.0 mb)
Winds: from the SSE (150 degrees) at 2 MPH (2 knots; 1.0 m/s)
Visibility: 6 or more miles (10+ km)
Ceiling: ceiling and visibility are OK
Clouds: unknown
Weather: no significant weather observed at this time

METAR text: URKA 142000Z 00000MPS CAVOK 22/21 Q1004 R22/010070 TEMPO 1000 BR RMK QFE748/0998
Conditions at: URKA (ANAPA/VITIAZEVO , RU) observed 2000 UTC 14 August 2022
Temperature: 22.0°C (72°F)
Dewpoint: 21.0°C (70°F) [RH = 94%]
Pressure (altimeter): 29.65 inches Hg (1004.0 mb)
Winds: calm
Visibility: 6 or more miles (10+ km)
Ceiling: ceiling and visibility are OK
Clouds: unknown
Weather: no significant weather observed at this time

Forecast for: URKA (ANAPA/VITIAZEVO , RU)
Text: TAF URKA 141958Z 1421/1521 19003MPS CAVOK
Forecast period: 2100 UTC 14 August 2022 to 1500 UTC 15 August 2022
Forecast type: FROM: standard forecast or significant change
Winds: from the S (190 degrees) at 7 MPH (6 knots; 3.1 m/s)
Visibility: 6 or more miles (10+ km)
Ceiling: unknown
Clouds: missing
Weather: NSW  (no significant weather)
Text: TEMPO 1506/1515 26005MPS SCT040CB
Forecast period: 0600 to 1500 UTC 15 August 2022
Forecast type: TEMPORARY: The following changes expected for less than half the time period
Winds: from the W (260 degrees) at 12 MPH (10 knots; 5.1 m/s)
Visibility: missing
Ceiling: at least 12,000 feet AGL
Clouds: scattered clouds at 4000 feet AGL
Weather: no significant weather forecast for this period
Text: PROB40
Forecast period: 0900 to 1500 UTC 15 August 2022
Forecast type: TEMPORARY: The following changes expected for less than half the time period
Visibility: missing
Ceiling: 2000 feet AGL
Clouds: broken clouds at 2000 feet AGL
Weather: -TSRA  (light rain associated with thunderstorm(s))
Text: TEMPO 1509/1515 -TSRA BKN020CB
Forecast period: 1500 to 2100 UTC 15 August 2022
Forecast type: BECOMING: Conditions expected to become as follows by 1700 UTC 15 August 2022
Winds: from the NNW (330 degrees) at 7 MPH (6 knots; 3.1 m/s)
Visibility: 6 or more miles (10+ km)
Ceiling: unknown
Clouds: missing
Weather: NSW  (no significant weather)